ORMM/BSR METAR and TAF weather

Enter ICAO airport designator
Station Type Date Time Source
ORMM METAR 2018/12/15 20:00 UTC NOAA

ORMM 152000Z 28006KT CAVOK 11/06 Q1025 NOSIG


Station Type Date Time Source
ORMM Decoded METAR 2018/12/15 20:00 UTC NOAA

Station name not available
Dec 15, 2018 - 03:00 PM EST / 2018.12.15 2000 UTC
Wind: from the W (280 degrees) at 7 MPH (6 KT):0
Visibility: greater than 7 mile(s):0
Temperature: 51 F (11 C)
Dew Point: 42 F (6 C)
Relative Humidity: 71%
Pressure (altimeter): 30.27 in. Hg (1025 hPa)
ob: ORMM 152000Z 28006KT CAVOK 11/06 Q1025 NOSIG
cycle: 20

Station Type Date Time Source
ORMM TAF 2018/12/15 18:18 UTC NOAA

TAF ORMM 151600Z 1518/1618 29010KT CAVOK
TEMPO 1603/1607 6000 NSC


Example: see airport list